createdAt,value
2022-10-11T00:02:17.141Z,77.30
2022-10-11T00:05:33.378Z,77.40
2022-10-11T00:08:37.516Z,77.40
2022-10-11T00:11:51.211Z,77.40
2022-10-11T00:15:06.286Z,77.40
2022-10-11T00:18:20.441Z,77.20
2022-10-11T00:21:36.149Z,77.30
2022-10-11T00:24:50.044Z,77.40
2022-10-11T00:28:03.905Z,77.20
2022-10-11T00:31:17.861Z,77.30
2022-10-11T00:34:31.903Z,77.40
2022-10-11T00:37:47.672Z,77.40
2022-10-11T00:41:01.919Z,77.40
2022-10-11T00:44:20.651Z,77.50
2022-10-11T00:47:34.577Z,77.50
2022-10-11T00:50:48.604Z,77.50
2022-10-11T00:54:04.878Z,77.50
2022-10-11T00:57:21.652Z,77.50
2022-10-11T01:00:36.099Z,77.60
2022-10-11T01:03:50.006Z,77.60
2022-10-11T01:07:04.398Z,77.60
2022-10-11T01:10:20.355Z,77.60
2022-10-11T01:13:48.506Z,77.60
2022-10-11T01:16:59.087Z,77.70
2022-10-11T01:20:45.893Z,77.70
2022-10-11T01:24:08.765Z,77.70
2022-10-11T01:27:42.464Z,77.70
2022-10-11T01:30:48.522Z,77.80
2022-10-11T01:33:56.107Z,77.60
2022-10-11T01:37:05.774Z,77.70
2022-10-11T01:40:14.017Z,77.80
2022-10-11T01:43:19.193Z,77.80
2022-10-11T01:46:26.272Z,77.80
2022-10-11T01:49:41.327Z,77.70
2022-10-11T01:52:56.897Z,77.70
2022-10-11T01:56:24.051Z,77.80
2022-10-11T01:59:49.375Z,77.80
2022-10-11T02:03:20.455Z,77.80
2022-10-11T02:06:41.491Z,77.90
2022-10-11T02:10:00.145Z,77.90
2022-10-11T02:13:19.886Z,77.90
2022-10-11T02:16:40.422Z,77.80
2022-10-11T02:19:59.597Z,77.80
2022-10-11T02:23:16.773Z,77.80
2022-10-11T02:26:33.842Z,77.90
2022-10-11T02:29:50.410Z,77.80
2022-10-11T02:33:06.811Z,77.80
2022-10-11T02:36:17.247Z,77.90
2022-10-11T02:39:35.859Z,78.00
2022-10-11T02:42:58.018Z,77.80
2022-10-11T02:46:12.512Z,77.90
2022-10-11T02:49:27.702Z,77.90
2022-10-11T02:52:43.509Z,77.90
2022-10-11T02:55:57.693Z,77.90
2022-10-11T02:59:11.320Z,77.90
2022-10-11T03:02:25.375Z,78.00
2022-10-11T03:05:42.897Z,77.80
2022-10-11T03:08:58.778Z,78.20
2022-10-11T03:12:12.730Z,77.90
2022-10-11T03:15:26.639Z,77.90
2022-10-11T03:18:40.589Z,77.90
2022-10-11T03:21:54.526Z,78.00
2022-10-11T03:25:11.066Z,78.00
2022-10-11T03:28:14.770Z,78.00
2022-10-11T03:31:28.673Z,77.90
2022-10-11T03:34:42.573Z,78.00
2022-10-11T03:37:56.449Z,78.00
2022-10-11T03:41:12.257Z,78.00
2022-10-11T03:44:26.283Z,77.90
2022-10-11T03:47:41.488Z,78.00
2022-10-11T03:50:55.358Z,77.90
2022-10-11T03:54:09.247Z,78.00
2022-10-11T03:57:25.114Z,78.00
2022-10-11T04:00:39.324Z,78.10
2022-10-11T04:03:55.959Z,78.00
2022-10-11T04:07:10.390Z,78.00
2022-10-11T04:10:24.350Z,77.90
2022-10-11T04:13:40.146Z,78.00
2022-10-11T04:16:56.416Z,78.00
2022-10-11T04:20:03.490Z,78.00
2022-10-11T04:23:17.381Z,78.00
2022-10-11T04:26:31.379Z,78.00
2022-10-11T04:29:36.985Z,78.00
2022-10-11T04:32:50.897Z,78.00
2022-10-11T04:36:05.451Z,78.00
2022-10-11T04:39:19.948Z,78.00
2022-10-11T04:42:33.835Z,78.00
2022-10-11T04:45:54.603Z,78.00
2022-10-11T04:49:09.375Z,78.10
2022-10-11T04:52:13.070Z,78.00
2022-10-11T04:55:16.942Z,78.10
2022-10-11T04:58:31.501Z,78.10
2022-10-11T05:01:47.357Z,78.10
2022-10-11T05:05:01.321Z,78.20
2022-10-11T05:08:15.443Z,78.10
2022-10-11T05:11:20.148Z,78.10
2022-10-11T05:14:34.066Z,78.10
2022-10-11T05:17:49.850Z,78.10
2022-10-11T05:21:00.672Z,78.10
2022-10-11T05:24:14.541Z,78.20
2022-10-11T05:27:28.399Z,78.10
2022-10-11T05:30:42.298Z,78.00
2022-10-11T05:33:59.289Z,78.00
2022-10-11T05:37:13.178Z,78.10
2022-10-11T05:40:27.215Z,78.10
2022-10-11T05:43:41.106Z,78.10
2022-10-11T05:46:54.998Z,78.10
2022-10-11T05:50:11.471Z,78.10
2022-10-11T05:53:25.422Z,78.10
2022-10-11T05:56:39.328Z,78.20
2022-10-11T05:59:53.318Z,78.20
2022-10-11T06:03:07.743Z,78.20
2022-10-11T06:06:23.846Z,78.20
2022-10-11T06:09:38.963Z,78.20
2022-10-11T06:12:52.978Z,78.20
2022-10-11T06:16:07.899Z,78.20
2022-10-11T06:19:11.895Z,78.30
2022-10-11T06:22:28.066Z,78.30
2022-10-11T06:25:41.953Z,78.30
2022-10-11T06:28:55.877Z,78.30
2022-10-11T06:32:09.779Z,78.40
2022-10-11T06:35:23.654Z,78.30
2022-10-11T06:38:44.497Z,78.40
2022-10-11T06:41:59.003Z,78.40
2022-10-11T06:45:12.933Z,78.40
2022-10-11T06:48:27.061Z,78.50
2022-10-11T06:51:40.922Z,78.40
2022-10-11T06:54:56.717Z,78.50
2022-10-11T06:58:10.694Z,78.60
2022-10-11T07:01:24.975Z,78.60
2022-10-11T07:04:38.931Z,78.70
2022-10-11T07:07:52.814Z,78.70
2022-10-11T07:11:10.440Z,78.90
2022-10-11T07:14:25.092Z,79.00
2022-10-11T07:17:38.947Z,79.10
2022-10-11T07:20:52.932Z,79.10
2022-10-11T07:24:07.925Z,79.20
2022-10-11T07:27:25.383Z,79.30
2022-10-11T07:30:40.282Z,79.30
2022-10-11T07:33:54.330Z,79.40
2022-10-11T07:37:08.228Z,79.50
2022-10-11T07:40:22.138Z,79.60
2022-10-11T07:43:38.791Z,79.60
2022-10-11T07:46:52.827Z,79.60
2022-10-11T07:50:07.629Z,79.70
2022-10-11T07:53:21.781Z,79.80
2022-10-11T07:56:35.573Z,79.80
2022-10-11T07:59:51.399Z,79.80
2022-10-11T08:03:06.082Z,80.20
2022-10-11T08:06:23.083Z,79.70
2022-10-11T08:09:37.002Z,79.80
2022-10-11T08:12:51.105Z,79.90
2022-10-11T08:16:13.607Z,80.00
2022-10-11T08:19:27.550Z,80.10
2022-10-11T08:22:41.530Z,80.00
2022-10-11T08:25:58.403Z,80.10
2022-10-11T08:29:13.604Z,80.20
2022-10-11T08:32:30.517Z,80.10
2022-10-11T08:35:44.545Z,80.30
2022-10-11T08:38:59.135Z,80.20
2022-10-11T08:42:18.510Z,80.30
2022-10-11T08:45:36.954Z,80.40
2022-10-11T08:48:46.907Z,80.40
2022-10-11T08:52:04.076Z,81.20
2022-10-11T08:55:22.659Z,80.50
2022-10-11T08:58:43.894Z,80.60
2022-10-11T09:02:04.402Z,80.70
2022-10-11T09:05:15.654Z,80.60
2022-10-11T09:08:38.327Z,80.70
2022-10-11T09:12:04.855Z,80.60
2022-10-11T09:15:27.617Z,80.70
2022-10-11T09:19:06.561Z,80.70
2022-10-11T09:22:32.880Z,80.80
2022-10-11T09:25:52.183Z,80.70
2022-10-11T09:29:12.059Z,80.70
2022-10-11T09:32:31.720Z,80.70
2022-10-11T09:35:48.473Z,80.60
2022-10-11T09:39:06.532Z,80.60
2022-10-11T09:42:11.889Z,80.50
2022-10-11T09:45:18.827Z,80.40
2022-10-11T09:48:25.190Z,80.40
2022-10-11T09:51:29.927Z,80.40
2022-10-11T09:54:43.901Z,80.30
2022-10-11T09:57:56.689Z,80.30
2022-10-11T10:01:08.038Z,80.30
2022-10-11T10:04:16.306Z,80.10
2022-10-11T10:07:19.955Z,80.10
2022-10-11T10:10:40.616Z,80.10
2022-10-11T10:13:47.242Z,80.00
2022-10-11T10:17:04.433Z,79.80
2022-10-11T10:20:19.466Z,79.70
2022-10-11T10:23:27.216Z,79.40
2022-10-11T10:26:33.578Z,79.30
2022-10-11T10:29:37.291Z,78.90
2022-10-11T10:32:48.761Z,78.60
2022-10-11T10:35:57.500Z,78.20
2022-10-11T10:39:08.810Z,77.90
2022-10-11T10:42:18.313Z,77.60
2022-10-11T10:45:27.257Z,77.20
2022-10-11T10:49:12.015Z,77.10
2022-10-11T10:52:18.664Z,76.90
2022-10-11T10:55:27.802Z,76.60
2022-10-11T10:58:53.237Z,76.50
2022-10-11T11:02:15.878Z,76.20
2022-10-11T11:05:34.202Z,76.00
2022-10-11T11:08:50.758Z,75.80
2022-10-11T11:12:07.954Z,76.00
2022-10-11T11:15:23.780Z,75.10
2022-10-11T11:18:39.142Z,74.80
2022-10-11T11:21:48.526Z,74.70
2022-10-11T11:25:00.289Z,74.80
2022-10-11T11:28:17.564Z,74.10
2022-10-11T11:31:37.668Z,73.80
2022-10-11T11:34:45.457Z,73.50
2022-10-11T11:37:56.033Z,73.40
2022-10-11T11:41:06.532Z,73.10
2022-10-11T11:44:14.780Z,73.00
2022-10-11T11:47:25.940Z,72.60
2022-10-11T11:50:39.531Z,72.10
2022-10-11T11:53:53.289Z,71.70
2022-10-11T11:57:02.398Z,71.60
2022-10-11T12:00:08.329Z,71.40
2022-10-11T12:03:29.287Z,71.30
2022-10-11T12:06:35.903Z,70.60
2022-10-11T12:09:44.430Z,70.80
2022-10-11T12:12:48.167Z,70.60
2022-10-11T12:16:02.339Z,70.50
2022-10-11T12:19:14.268Z,70.10
2022-10-11T12:22:33.848Z,70.20
2022-10-11T12:25:42.472Z,70.00
2022-10-11T12:29:05.216Z,69.70
2022-10-11T12:32:53.835Z,69.00
2022-10-11T12:36:05.809Z,68.70
2022-10-11T12:39:51.727Z,69.00
2022-10-11T12:43:11.885Z,68.30
2022-10-11T12:46:41.648Z,68.20
2022-10-11T12:49:55.415Z,68.10
2022-10-11T12:53:08.611Z,68.30
2022-10-11T12:56:19.663Z,68.30
2022-10-11T12:59:24.792Z,68.20
2022-10-11T13:02:36.553Z,68.20
2022-10-11T13:05:50.999Z,68.20
2022-10-11T13:09:05.162Z,68.00
2022-10-11T13:12:13.889Z,68.10
2022-10-11T13:15:22.275Z,68.20
2022-10-11T13:18:27.414Z,68.20
2022-10-11T13:21:35.469Z,68.30
2022-10-11T13:24:42.259Z,68.10
2022-10-11T13:27:46.438Z,68.00
2022-10-11T13:30:53.581Z,68.00
2022-10-11T13:33:59.187Z,67.90
2022-10-11T13:37:03.010Z,67.90
2022-10-11T13:40:15.393Z,67.90
2022-10-11T13:43:23.137Z,67.70
2022-10-11T13:46:29.194Z,67.80
2022-10-11T13:49:39.446Z,67.80
2022-10-11T13:52:56.681Z,67.80
2022-10-11T13:56:05.828Z,67.50
2022-10-11T13:59:16.566Z,67.60
2022-10-11T14:02:23.590Z,67.70
2022-10-11T14:05:31.836Z,67.50
2022-10-11T14:08:39.330Z,67.50
2022-10-11T14:11:44.887Z,67.40
2022-10-11T14:14:49.571Z,67.40
2022-10-11T14:17:53.321Z,67.30
2022-10-11T14:20:57.069Z,67.30
2022-10-11T14:24:04.318Z,67.20
2022-10-11T14:27:16.718Z,67.20
2022-10-11T14:30:27.365Z,67.10
2022-10-11T14:33:31.622Z,67.20
2022-10-11T14:36:35.434Z,67.30
2022-10-11T14:39:39.143Z,67.30
2022-10-11T14:42:44.963Z,67.30
2022-10-11T14:45:48.614Z,67.50
2022-10-11T14:48:55.925Z,67.60
2022-10-11T14:52:00.697Z,67.50
2022-10-11T14:55:04.434Z,67.60
2022-10-11T14:58:11.265Z,67.50
2022-10-11T15:01:15.802Z,67.50
2022-10-11T15:04:24.677Z,67.50
2022-10-11T15:07:28.484Z,67.50
2022-10-11T15:10:36.050Z,67.40
2022-10-11T15:13:41.638Z,67.40
2022-10-11T15:16:45.330Z,67.30
2022-10-11T15:19:50.166Z,67.30
2022-10-11T15:22:53.850Z,67.40
2022-10-11T15:25:57.719Z,67.30
2022-10-11T15:29:03.378Z,67.30
2022-10-11T15:32:07.530Z,67.30
2022-10-11T15:35:11.583Z,67.30
2022-10-11T15:38:17.362Z,67.30
2022-10-11T15:41:23.262Z,67.40
2022-10-11T15:44:28.859Z,67.50
2022-10-11T15:47:32.602Z,67.40
2022-10-11T15:50:38.277Z,67.40
2022-10-11T15:53:42.193Z,67.40
2022-10-11T15:56:45.621Z,67.50
2022-10-11T15:59:51.115Z,67.60
2022-10-11T16:02:55.064Z,67.60
2022-10-11T16:06:04.806Z,67.70
2022-10-11T16:09:09.281Z,67.70
2022-10-11T16:12:12.903Z,67.80
2022-10-11T16:15:18.946Z,67.80
2022-10-11T16:18:23.520Z,67.90
2022-10-11T16:21:27.143Z,68.00
2022-10-11T16:24:30.909Z,68.10
2022-10-11T16:27:35.096Z,68.20
2022-10-11T16:30:42.527Z,68.20
2022-10-11T16:33:49.629Z,68.30
2022-10-11T16:36:53.237Z,68.30
2022-10-11T16:39:57.034Z,68.50
2022-10-11T16:43:07.281Z,68.50
2022-10-11T16:46:13.361Z,68.70
2022-10-11T16:49:17.227Z,68.70
2022-10-11T16:52:20.861Z,68.70
2022-10-11T16:55:24.527Z,68.80
2022-10-11T16:58:28.122Z,68.90
2022-10-11T17:01:33.717Z,68.90
2022-10-11T17:04:37.385Z,69.00
2022-10-11T17:07:40.983Z,69.70
2022-10-11T17:10:46.813Z,69.20
2022-10-11T17:13:52.659Z,69.20
2022-10-11T17:16:58.234Z,69.30
2022-10-11T17:20:02.962Z,69.40
2022-10-11T17:23:06.866Z,69.40
2022-10-11T17:26:19.073Z,69.50
2022-10-11T17:29:23.521Z,69.60
2022-10-11T17:32:29.018Z,69.70
2022-10-11T17:35:33.774Z,69.70
2022-10-11T17:38:37.377Z,69.80
2022-10-11T17:41:40.990Z,69.80
2022-10-11T17:44:44.722Z,69.90
2022-10-11T17:47:50.375Z,70.00
2022-10-11T17:50:54.359Z,70.10
2022-10-11T17:53:57.802Z,70.10
2022-10-11T17:57:01.502Z,70.10
2022-10-11T18:00:07.267Z,70.20
2022-10-11T18:03:12.808Z,70.30
2022-10-11T18:06:16.402Z,70.30
2022-10-11T18:09:20.728Z,70.40
2022-10-11T18:12:25.350Z,70.50
2022-10-11T18:15:31.586Z,70.60
2022-10-11T18:18:37.332Z,70.70
2022-10-11T18:21:41.178Z,70.70
2022-10-11T18:24:44.786Z,70.70
2022-10-11T18:27:48.448Z,70.90
2022-10-11T18:30:52.574Z,70.90
2022-10-11T18:33:58.278Z,71.00
2022-10-11T18:37:01.910Z,71.00
2022-10-11T18:40:06.471Z,71.10
2022-10-11T18:43:10.090Z,71.20
2022-10-11T18:46:15.157Z,71.30
2022-10-11T18:49:24.161Z,71.20
2022-10-11T18:52:27.894Z,71.30
2022-10-11T18:55:31.549Z,71.30
2022-10-11T18:58:37.064Z,71.40
2022-10-11T19:01:43.479Z,71.40
2022-10-11T19:04:52.154Z,71.50
2022-10-11T19:07:55.746Z,71.60
2022-10-11T19:11:05.323Z,71.60
2022-10-11T19:14:10.868Z,71.70
2022-10-11T19:17:14.623Z,71.70
2022-10-11T19:20:20.203Z,71.80
2022-10-11T19:23:23.826Z,71.80
2022-10-11T19:26:31.091Z,71.90
2022-10-11T19:29:35.122Z,71.90
2022-10-11T19:32:38.839Z,72.00
2022-10-11T19:35:54.835Z,72.00
2022-10-11T19:38:59.127Z,72.20
2022-10-11T19:42:04.211Z,72.00
2022-10-11T19:45:09.489Z,72.20
2022-10-11T19:48:13.462Z,72.20
2022-10-11T19:51:20.973Z,72.20
2022-10-11T19:54:25.046Z,72.20
2022-10-11T19:57:28.436Z,72.10
2022-10-11T20:00:32.070Z,72.20
2022-10-11T20:03:36.166Z,72.10
2022-10-11T20:06:43.299Z,72.20
2022-10-11T20:09:46.899Z,72.30
2022-10-11T20:12:50.493Z,72.40
2022-10-11T20:15:58.243Z,72.40
2022-10-11T20:19:02.372Z,72.50
2022-10-11T20:22:07.918Z,72.50
2022-10-11T20:25:12.009Z,72.60
2022-10-11T20:28:15.680Z,72.70
2022-10-11T20:31:21.832Z,72.70
2022-10-11T20:34:26.580Z,72.70
2022-10-11T20:37:32.494Z,72.80
2022-10-11T20:40:36.236Z,72.80
2022-10-11T20:43:40.110Z,72.80
2022-10-11T20:46:43.856Z,72.90
2022-10-11T20:49:47.459Z,72.90
2022-10-11T20:52:53.062Z,72.90
2022-10-11T20:55:57.620Z,73.00
2022-10-11T20:59:01.878Z,73.00
2022-10-11T21:02:05.612Z,73.00
2022-10-11T21:05:10.787Z,73.10
2022-10-11T21:08:16.443Z,73.20
2022-10-11T21:11:20.094Z,73.20
2022-10-11T21:14:23.857Z,73.10
2022-10-11T21:17:27.473Z,73.30
2022-10-11T21:20:31.073Z,73.20
2022-10-11T21:23:36.754Z,73.00
2022-10-11T21:26:40.483Z,73.20
2022-10-11T21:29:44.069Z,73.30
2022-10-11T21:32:47.677Z,73.30
2022-10-11T21:35:51.305Z,73.30
2022-10-11T21:38:57.490Z,73.30
2022-10-11T21:42:01.094Z,73.40
2022-10-11T21:45:05.649Z,73.40
2022-10-11T21:48:09.258Z,73.50
2022-10-11T21:51:15.343Z,73.50
2022-10-11T21:54:21.164Z,73.40
2022-10-11T21:57:24.793Z,73.50
2022-10-11T22:00:28.378Z,73.50
2022-10-11T22:03:32.020Z,73.70
2022-10-11T22:06:35.953Z,73.60
2022-10-11T22:09:41.318Z,73.60
2022-10-11T22:12:45.786Z,73.60
2022-10-11T22:15:49.571Z,73.50
2022-10-11T22:18:54.894Z,73.60
2022-10-11T22:21:58.565Z,73.70
2022-10-11T22:25:04.121Z,73.70
2022-10-11T22:28:08.103Z,73.70
2022-10-11T22:31:11.519Z,73.80
2022-10-11T22:34:15.123Z,73.70
2022-10-11T22:37:18.829Z,73.60
2022-10-11T22:40:24.609Z,73.70
2022-10-11T22:43:28.242Z,73.70
2022-10-11T22:46:32.054Z,73.80
2022-10-11T22:49:35.649Z,73.80
2022-10-11T22:52:40.234Z,73.80
2022-10-11T22:55:45.836Z,73.80
2022-10-11T22:58:49.463Z,73.90
2022-10-11T23:01:53.066Z,73.90
2022-10-11T23:04:57.719Z,73.90
2022-10-11T23:08:01.360Z,73.90
2022-10-11T23:11:09.138Z,74.00
2022-10-11T23:14:13.166Z,74.00
2022-10-11T23:17:16.829Z,74.00
2022-10-11T23:20:20.423Z,74.10
2022-10-11T23:23:24.008Z,74.10
2022-10-11T23:26:29.566Z,74.10
2022-10-11T23:29:33.745Z,74.20
2022-10-11T23:32:38.470Z,74.10
2022-10-11T23:35:42.638Z,74.10
2022-10-11T23:38:50.760Z,74.20
2022-10-11T23:41:56.420Z,74.20
2022-10-11T23:45:00.050Z,74.20
2022-10-11T23:48:03.868Z,74.20
2022-10-11T23:51:08.282Z,74.20
2022-10-11T23:54:12.048Z,74.20
2022-10-11T23:57:17.590Z,74.20
